• Join FlightAware (Why Join?)
  • Login
  • US Flag 
10:12AM EDT


 

Airport Tracker/Info


-or-


 

Live Flight TrackerFlight Track Log ✈ ASQ4578 ✈ 04-May-2012 ✈ KOMA - KIAH

Flight Track Log - Related Links

Times and Time Zones

All times are in EDT time to prevent confusion due to time zone crossing. See the ASQ4578 flight status page for this flight to view local times or setup timezone preferences in your user account.

Time Position Orientation Groundspeed Altitude Reporting Facility
EDT Latitude Longitude Course Direction KTS MPH feet Rate Location/Type
08:12PM 41.2892 -95.8908 178° South 173 199 1,600  Level Minneapolis Center
08:12PM 41.2600 -95.8894 187° South 190 219 2,900 1,980 Climbing Minneapolis Center
08:14PM 41.1911 -95.9006 184° South 226 260 5,000 2,100 Climbing Minneapolis Center
08:15PM 41.1056 -95.9083 184° South 263 303 7,800 2,040 Climbing Minneapolis Center
08:16PM 41.0450 -95.9142 185° South 275 316 9,600 1,320 Climbing Minneapolis Center
08:17PM 40.9533 -95.9242 185° South 284 327 10,500 1,020 Climbing Minneapolis Center
08:18PM 40.8617 -95.9342 200° South 315 362 11,700 1,200 Climbing Minneapolis Center
08:19PM 40.7689 -95.9797 204° Southwest 334 384 12,900 1,200 Climbing Minneapolis Center
08:20PM 40.6761 -96.0336 204° Southwest 354 407 14,100 1,140 Climbing Minneapolis Center
08:21PM 40.5833 -96.0869 203° Southwest 363 418 15,200 1,200 Climbing Minneapolis Center
08:22PM 40.4864 -96.1400 202° Southwest 375 432 16,600 1,320 Climbing Minneapolis Center
08:24PM 40.2936 -96.2439 203° Southwest 365 420 19,100 1,140 Climbing Kansas City Center
08:25PM 40.2011 -96.2958 202° Southwest 386 444 20,000 960 Climbing Kansas City Center
08:26PM 40.0981 -96.3503 203° Southwest 403 464 21,100 1,200 Climbing Kansas City Center
08:27PM 39.9847 -96.4122 203° Southwest 409 471 22,500 1,260 Climbing Kansas City Center
08:28PM 39.8817 -96.4692 203° Southwest 409 471 23,700 1,200 Climbing Kansas City Center
08:29PM 39.7872 -96.5206 201° Southwest 409 471 24,900 1,200 Climbing Kansas City Center
08:30PM 39.6819 -96.5742 203° Southwest 409 471 26,100 1,260 Climbing Kansas City Center
08:31PM 39.5683 -96.6381 202° Southwest 409 471 27,500 1,260 Climbing Kansas City Center
08:32PM 39.4631 -96.6942 202° Southwest 414 476 28,700 1,200 Climbing Kansas City Center
08:33PM 39.3558 -96.7500 204° Southwest 414 476 29,900 1,260 Climbing Kansas City Center
08:34PM 39.2758 -96.7958 203° Southwest 409 471 31,300 1,500 Climbing Kansas City Center
08:35PM 39.1536 -96.8617 202° Southwest 403 464 33,000 1,200 Climbing Kansas City Center
08:36PM 39.0547 -96.9119 202° Southwest 404 465 33,800 840 Climbing Kansas City Center
08:37PM 38.9367 -96.9747 201° Southwest 418 481 34,700 780 Climbing Kansas City Center
08:38PM 38.8356 -97.0244 202° Southwest 429 494 35,400 600 Climbing Kansas City Center
08:39PM 38.7111 -97.0894 202° Southwest 439 505 36,000 300 Climbing Kansas City Center
08:40PM 38.5950 -97.1492 203° Southwest 448 516 36,000  Level Kansas City Center
08:41PM 38.4728 -97.2139 201° Southwest 463 533 36,000  Level Kansas City Center
08:42PM 38.3736 -97.2631 202° Southwest 470 541 36,000  Level Kansas City Center
08:43PM 38.2406 -97.3322 202° Southwest 476 548 36,000  Level Kansas City Center
08:44PM 38.1203 -97.3936 201° Southwest 476 548 36,000  Level Kansas City Center
08:45PM 37.9978 -97.4547 203° Southwest 481 554 36,000  Level Kansas City Center
08:46PM 37.8667 -97.5258 203° Southwest 476 548 36,000  Level Kansas City Center
08:47PM 37.7419 -97.5919 199° South 481 554 36,000  Level Kansas City Center
08:48PM 37.6239 -97.6419 203° Southwest 487 560 36,000  Level Kansas City Center
08:49PM 37.5033 -97.7053 201° Southwest 487 560 36,000  Level Kansas City Center
08:50PM 37.3806 -97.7653 183° South 481 554 36,000  Level Kansas City Center
08:51PM 37.2531 -97.7728 176° South 454 522 36,000  Level Kansas City Center
08:52PM 37.1242 -97.7622 176° South 459 528 36,000  Level Kansas City Center
08:53PM 36.9931 -97.7514 176° South 464 534 36,000  Level Kansas City Center
08:54PM 36.8617 -97.7406 175° South 471 542 36,000  Level Kansas City Center
08:55PM 36.7308 -97.7275 177° South 476 548 36,000  Level Kansas City Center
08:56PM 36.5975 -97.7192 175° South 476 548 36,000  Level Kansas City Center
08:57PM 36.4603 -97.7033 176° South 471 542 36,000  Level Kansas City Center
08:58PM 36.2692 -97.6864 176° South 462 532 36,000  Level Fort Worth Center
08:59PM 36.1419 -97.6758 176° South 462 532 36,000  Level Fort Worth Center
09:00PM 36.0147 -97.6650 176° South 462 532 36,000  Level Fort Worth Center
09:01PM 35.8856 -97.6544 177° South 462 532 36,000  Level Fort Worth Center
09:02PM 35.7500 -97.6464 176° South 462 532 36,000  Level Fort Worth Center
09:03PM 35.6269 -97.6358 176° South 457 526 36,000  Level Fort Worth Center
09:04PM 35.5061 -97.6253 177° South 451 519 36,000  Level Fort Worth Center
09:05PM 35.3914 -97.6172 168° South 432 497 36,000  Level Fort Worth Center
09:06PM 35.2767 -97.5864 161° South 427 491 36,000 180 Level Fort Worth Center
09:07PM 35.1600 -97.5381 162° South 427 491 36,400 480 Climbing Fort Worth Center
09:08PM 35.0411 -97.4922 162° South 440 506 37,000 300 Climbing Fort Worth Center
09:09PM 34.9244 -97.4464 162° South 440 506 37,000  Level Fort Worth Center
09:10PM 34.8117 -97.4008 160° South 440 506 37,000  Level Fort Worth Center
09:11PM 34.7033 -97.3531 149° Southeast 433 498 37,000  Level Fort Worth Center
09:12PM 34.6114 -97.2872 141° Southeast 406 467 37,000  Level Fort Worth Center
09:13PM 34.5258 -97.2042 147° Southeast 395 455 37,000  Level Fort Worth Center
09:14PM 34.4442 -97.1389 144° Southeast 395 455 37,000  Level Fort Worth Center
09:15PM 34.3564 -97.0614 147° Southeast 389 448 37,000  Level Fort Worth Center
09:16PM 34.2644 -96.9889 159° South 395 455 37,000  Level Fort Worth Center
09:17PM 34.1558 -96.9392 158° South 400 460 37,000  Level Fort Worth Center
09:18PM 34.0511 -96.8869 158° South 386 444 37,000  Level Fort Worth Center
09:19PM 33.9467 -96.8350 168° South 386 444 37,000  Level Fort Worth Center
09:20PM 33.8400 -96.8083 188° South 397 457 37,000  Level Fort Worth Center
09:21PM 33.7317 -96.8264 185° South 388 447 37,000  Level Fort Worth Center
09:22PM 33.6211 -96.8372 184° South 400 460 37,000  Level Fort Worth Center
09:23PM 33.5272 -96.8453 184° South 395 455 37,000  Level Fort Worth Center
09:24PM 33.4292 -96.8533 185° South 375 432 37,000  Level Fort Worth Center
09:25PM 33.3311 -96.8639 181° South 358 412 37,000  Level Fort Worth Center
09:26PM 33.2225 -96.8672 166° South 377 434 37,000  Level Fort Worth Center
09:27PM 33.1033 -96.8306 162° South 397 457 37,000  Level Fort Worth Center
09:28PM 32.9864 -96.7844 171° South 431 496 37,000  Level Fort Worth Center
09:29PM 32.8692 -96.7628 171° South 436 502 37,000  Level Fort Worth Center
09:30PM 32.7564 -96.7414 172° South 422 486 37,000  Level Fort Worth Center
09:31PM 32.6458 -96.7225 171° South 412 474 37,000  Level Fort Worth Center
09:32PM 32.5369 -96.7011 171° South 407 468 37,000  Level Fort Worth Center
09:33PM 32.4200 -96.6800 171° South 417 480 37,000  Level Fort Worth Center
09:34PM 32.3197 -96.6611 171° South 417 480 37,000  Level Fort Worth Center
09:35PM 32.2067 -96.6400 171° South 412 474 37,000  Level Fort Worth Center
09:36PM 32.0878 -96.6189 170° South 418 481 37,000 -540 Level Fort Worth Center
09:37PM 31.9686 -96.5931 173° South 436 502 36,000 -1,500 Descending Fort Worth Center
09:38PM 31.8347 -96.5747 171° South 436 502 34,000 -2,160 Descending Fort Worth Center
09:40PM 31.6372 -96.5383 170° South 457 526 30,100 -1,860 Descending Houston Center
09:41PM 31.5150 -96.5128 164° South 452 520 29,000 -600 Descending Houston Center
09:42PM 31.3956 -96.4731 158° South 452 520 29,000 -540 Level Houston Center
09:43PM 31.2706 -96.4136 149° Southeast 452 520 28,000 -1,740 Descending Houston Center
09:44PM 31.1606 -96.3378 149° Southeast 452 520 25,600 -1,860 Descending Houston Center
09:45PM 31.0464 -96.2575 151° Southeast 458 527 24,300 -1,920 Descending Houston Center
09:46PM 30.9383 -96.1872 150° Southeast 457 526 21,800 -2,760 Descending Houston Center
09:48PM 30.7444 -96.0578 151° Southeast 428 493 16,100 -2,820 Descending Houston Center
09:49PM 30.6464 -95.9956 151° Southeast 415 478 13,400 -2,880 Descending Houston Center
09:50PM 30.5831 -95.9542 150° Southeast 379 436 11,600 -2,460 Descending Houston Center
09:50PM 30.5297 -95.9183 150° Southeast 365 420 10,500 -1,200 Descending Houston Center
09:51PM 30.4725 -95.8797 162° South 366 421 10,000 -300 Descending Houston Center
09:52PM 30.3983 -95.8525 169° South 321 369 10,000 -480 Level Houston Center
09:53PM 30.3197 -95.8350 170° South 295 339 9,100 -960 Descending Houston Center
09:54PM 30.2450 -95.8197 146° Southeast 290 334 8,100 -720 Descending Houston Center
09:55PM 30.1839 -95.7717 124° Southeast 278 320 7,700 -900 Descending Houston Center
09:56PM 30.1422 -95.7003 126° Southeast 262 302 6,400 -1,500 Descending Houston Center
09:57PM 30.1022 -95.6364 126° Southeast 252 290 4,800 -1,560 Descending Houston Center
09:58PM 30.0603 -95.5700 128° Southeast 252 290 3,400 -1,140 Descending Houston Center
09:59PM 30.0203 -95.5108 120° Southeast 247 284 2,600 -840 Descending Houston Center
10:00PM 29.9967 -95.4644 98° East 212 244 1,800 -660 Descending Houston Center
10:01PM 29.9914 -95.4211 88° East 160 184 1,300 -600 Descending Houston Center
10:02PM 29.9925 -95.3828 99° East 130 150 600 -540 Descending Houston Center
10:03PM 29.9856 -95.3347 99° East 130 150 300 -300 Descending Houston Center